Terminal Aerodrome Forecast
Issued by NWS

Home | Current Version | Previous Version | Text Only | Print | Product List | Glossary On
Versions: 1 2 3 4 5 6 7 8 9 10 11 12 13 14 15
130
FTUS46 KSGX 270538
TAFONT
TAF
KONT 270538Z 2706/2812 VRB04KT P6SM BKN035
     FM271900 22007KT P6SM VCSH SCT020 BKN035
     FM280400 VRB04KT P6SM SCT020 BKN035=

USA.gov is the U.S. government's official web portal to all federal, state and local government web resources and services.